Glasgo, Connecticut
Current Conditions -  °F | °C
As of 12:53 AM on Wednesday 22 Oct 2014 (Local Time) from KWST Reporting Station
Overcast Overcast  
Wind Chill: 57°   Ceiling: 800
Heat Index: 57°   Visibility: 10mi
Dew Point: 54°   Wind: 7mph
Humidity: 89%   Direction: 10°N
Pressure: 29.94"   Gusts: NA
Location:  41.56°N, 71.89°W
Report Text: KWST 220453Z AUTO 01006KT 10SM OVC008 14/12 A2994 RMK AO2 SLP136 T01390122 401890089
Loading
Personal Weather Stations






























Interactive Weather Map
Tropical Storm Tracking
New forecast layout! Learn more

10-Day Weather Forecast

Advertisements
Track Severe Weather on mobile